Time;durP1;ratioP1;P1;durP2;ratioP2;P2;SDS_P1;SDS_P2;PMS_P1;PMS_P2;Temp;Humidity;BMP_temperature;BMP_pressure;BME280_temperature;BME280_humidity;BME280_pressure;Samples;Min_cycle;Max_cycle;Signal;HPM_P1;HPM_P2
2024/01/30 06:59:09;;;;;;;7.32;4.18;;;;;;;6.94;100.00;102437.97;1052492;23;20503;31
2024/01/30 07:01:35;;;;;;;5.97;4.13;;;;;;;6.96;100.00;102431.09;4909487;29;20060;-93
2024/01/30 07:04:28;;;;;;;7.28;4.68;;;;;;;6.96;100.00;102436.28;4913015;29;20043;-95
2024/01/30 07:06:53;;;;;;;6.05;4.05;;;;;;;6.98;100.00;102434.56;4908237;29;20025;-90
2024/01/30 07:09:29;;;;;;;;;;;;;;;;;;;;;
2024/01/30 07:11:55;;;;;;;6.38;4.03;;;;;;;7.01;100.00;102460.47;4902882;29;20032;-94
2024/01/30 07:14:20;;;;;;;7.43;4.53;;;;;;;7.05;100.00;102459.69;4907308;29;20055;-92
2024/01/30 07:16:46;;;;;;;8.77;4.63;;;;;;;7.06;100.00;102465.75;4918103;29;20409;-95
2024/01/30 07:19:13;;;;;;;6.70;4.13;;;;;;;7.07;100.00;102464.91;4908563;29;20020;-94
2024/01/30 07:21:40;;;;;;;6.53;3.97;;;;;;;7.09;100.00;102458.88;4904734;29;20040;-92
2024/01/30 07:24:06;;;;;;;7.78;4.40;;;;;;;7.15;100.00;102455.50;4906798;29;20697;-94
2024/01/30 07:26:31;;;;;;;6.65;4.05;;;;;;;7.17;100.00;102463.31;4900981;29;20047;-92
2024/01/30 07:28:56;;;;;;;8.20;4.53;;;;;;;7.21;100.00;102468.56;4909389;29;20064;-92
2024/01/30 07:31:24;;;;;;;8.02;4.05;;;;;;;7.25;100.00;102472.06;4919804;29;20103;-93
2024/01/30 07:33:50;;;;;;;6.93;4.05;;;;;;;7.27;100.00;102472.94;4904798;29;20056;-93
2024/01/30 07:36:15;;;;;;;5.85;4.20;;;;;;;7.30;100.00;102473.00;4904471;29;20465;-93
2024/01/30 07:38:41;;;;;;;7.07;4.13;;;;;;;7.33;100.00;102473.03;4906146;29;20028;-92
2024/01/30 07:41:06;;;;;;;7.80;4.57;;;;;;;7.36;100.00;102467.88;4912275;29;20283;-92
2024/01/30 07:43:34;;;;;;;6.78;4.32;;;;;;;7.38;100.00;102468.78;4906010;29;20024;-93
2024/01/30 07:46:01;;;;;;;6.82;4.45;;;;;;;7.41;100.00;102474.00;4898245;29;20043;-93
2024/01/30 07:48:27;;;;;;;6.68;4.00;;;;;;;7.43;100.00;102463.66;4905878;29;20084;-92
2024/01/30 07:50:53;;;;;;;6.25;4.57;;;;;;;7.47;100.00;102480.13;4910944;29;20037;-93
2024/01/30 07:53:18;;;;;;;8.00;4.15;;;;;;;7.49;100.00;102475.84;4899461;29;20046;-93
2024/01/30 07:55:46;;;;;;;6.80;4.43;;;;;;;7.51;100.00;102481.91;4905703;29;20028;-93
2024/01/30 07:58:13;;;;;;;8.23;4.70;;;;;;;7.57;100.00;102481.97;4910429;29;20040;-93
2024/01/30 08:00:38;;;;;;;6.72;4.68;;;;;;;7.60;100.00;102487.22;4905072;29;20064;-93
2024/01/30 08:03:04;;;;;;;7.72;4.80;;;;;;;7.64;100.00;102498.47;4906572;29;20604;-93
2024/01/30 08:05:30;;;;;;;9.73;4.63;;;;;;;7.66;100.00;102491.59;4902766;29;20031;-92
2024/01/30 08:07:55;;;;;;;7.50;4.47;;;;;;;7.68;100.00;102495.06;4906185;29;20032;-94
2024/01/30 08:10:21;;;;;;;6.93;4.50;;;;;;;7.70;100.00;102502.00;4903201;29;20044;-93
2024/01/30 08:12:46;;;;;;;8.43;4.65;;;;;;;7.73;100.00;102496.88;4919897;29;20040;-94
2024/01/30 08:15:12;;;;;;;8.60;4.18;;;;;;;7.75;100.00;102502.94;4907099;29;20591;-93
2024/01/30 08:17:41;;;;;;;6.97;4.47;;;;;;;7.81;100.00;102506.47;4906495;29;20029;-92
2024/01/30 08:20:08;;;;;;;8.60;4.88;;;;;;;7.82;100.00;102500.44;4904636;29;20040;-95
2024/01/30 08:22:33;;;;;;;8.00;4.85;;;;;;;7.84;100.00;102498.75;4920995;29;20092;-94
2024/01/30 08:24:59;;;;;;;9.07;4.70;;;;;;;7.88;100.00;102495.31;4905569;29;20036;-94
2024/01/30 08:27:24;;;;;;;7.35;4.57;;;;;;;7.89;100.00;102505.72;4903861;29;20037;-93
2024/01/30 08:29:50;;;;;;;8.55;4.70;;;;;;;7.92;100.00;102515.25;4905786;29;20063;-94
2024/01/30 08:32:16;;;;;;;7.70;4.65;;;;;;;7.96;100.00;102501.47;4905218;29;20514;-93
2024/01/30 08:34:44;;;;;;;7.88;4.72;;;;;;;7.97;100.00;102505.81;4919799;29;20056;-94
2024/01/30 08:37:09;;;;;;;7.85;4.60;;;;;;;8.00;100.00;102508.44;4905535;29;20029;-94
2024/01/30 08:39:37;;;;;;;9.50;4.38;;;;;;;8.02;100.00;102509.34;4904863;29;20109;-96
2024/01/30 08:42:03;;;;;;;7.95;4.47;;;;;;;8.07;100.00;102503.31;4907291;29;20100;-95
2024/01/30 08:44:28;;;;;;;6.43;4.15;;;;;;;8.10;100.00;102503.34;4905117;29;20734;-94
2024/01/30 08:46:54;;;;;;;8.27;4.63;;;;;;;8.13;100.00;102504.25;4906804;29;20024;-94
2024/01/30 08:49:20;;;;;;;8.15;4.68;;;;;;;8.16;100.00;102511.22;4905205;29;20727;-94
2024/01/30 08:51:45;;;;;;;9.13;4.60;;;;;;;8.18;100.00;102514.69;4903175;29;20063;-93
2024/01/30 08:54:11;;;;;;;7.38;4.43;;;;;;;8.23;100.00;102505.22;4907168;29;20127;-95
2024/01/30 08:56:36;;;;;;;7.25;4.72;;;;;;;8.23;100.00;102505.22;4907551;29;20024;-93
2024/01/30 08:59:01;;;;;;;6.93;4.68;;;;;;;8.26;100.00;102504.41;4905315;29;20028;-94
2024/01/30 09:01:27;;;;;;;7.68;4.80;;;;;;;8.28;100.00;102505.31;4905517;29;20533;-93
2024/01/30 09:03:53;;;;;;;7.35;4.75;;;;;;;8.32;100.00;102505.34;4905037;29;20040;-91
2024/01/30 09:06:18;;;;;;;10.63;5.10;;;;;;;8.33;100.00;102507.09;4909319;29;20038;-92
2024/01/30 09:58:16;;;;;;;;;;;;;;;;;;;;;
2024/01/30 10:00:49;;;;;;;9.10;4.78;;;;;;;9.02;100.00;102544.94;4951765;28;20344;-91
2024/01/30 10:03:19;;;;;;;11.18;5.45;;;;;;;9.07;100.00;102542.38;4955651;28;20027;-95
2024/01/30 10:06:25;;;;;;;9.17;5.40;;;;;;;9.14;100.00;102544.16;4955385;28;20098;-95
2024/01/30 10:09:26;;;;;;;8.45;4.97;;;;;;;9.20;100.00;102549.41;4952369;29;20544;-95
2024/01/30 10:11:52;;;;;;;8.18;4.68;;;;;;;9.26;100.00;102549.44;4947159;29;20034;-93
2024/01/30 10:14:27;;;;;;;8.68;5.10;;;;;;;9.31;100.00;102548.63;4961767;28;20027;-95
2024/01/30 10:17:05;;;;;;;9.63;4.88;;;;;;;9.36;100.00;102546.94;4957769;28;20030;-94
2024/01/30 10:20:16;;;;;;;8.88;5.63;;;;;;;9.47;100.00;102552.19;4958099;29;20035;-95
2024/01/30 10:34:13;;;;;;;10.65;5.13;;;;;;;9.62;100.00;102569.59;5180246;23;20114;-94
2024/01/30 10:44:35;;;;;;;8.45;5.15;;;;;;;9.78;100.00;102562.78;2971691;23;20094;-92
2024/01/30 10:47:22;;;;;;;11.23;5.60;;;;;;;9.86;100.00;102567.16;4959889;29;20040;-95
2024/01/30 10:50:41;;;;;;;10.30;5.45;;;;;;;9.93;100.00;102561.97;4975771;28;20024;-94
2024/01/30 10:53:29;;;;;;;8.57;5.10;;;;;;;9.96;100.00;102562.88;4925423;29;20647;-93
2024/01/30 11:09:19;;;;;;;;;;;;;;;;;;;;;
2024/01/30 11:12:46;;;;;;;9.95;5.43;;;;;;;10.23;100.00;102565.56;4961482;28;20138;-95
2024/01/30 11:15:47;;;;;;;;;;;;;;;;;;;;;
2024/01/30 11:18:44;;;;;;;12.38;5.88;;;;;;;10.34;100.00;102571.66;4831456;29;20121;-95
2024/01/30 11:24:39;;;;;;;;;;;;;;;;;;;;;
2024/01/30 11:51:23;;;;;;;;;;;;;;;;;;;;;
2024/01/30 11:54:51;;;;;;;;;;;;;;;;;;;;;
2024/01/30 12:00:23;;;;;;;;;;;;;;;;;;;;;
2024/01/30 12:02:58;;;;;;;10.88;5.32;;;;;;;10.70;95.01;102572.66;4943672;29;20005;-94
2024/01/30 12:05:42;;;;;;;7.75;4.70;;;;;;;10.70;95.74;102576.97;4942201;29;20062;-93
2024/01/30 12:08:40;;;;;;;8.60;4.53;;;;;;;10.71;92.16;102582.22;4933582;29;20035;-93
2024/01/30 12:11:06;;;;;;;7.13;3.58;;;;;;;10.69;89.62;102575.25;4948922;28;20063;-92
2024/01/30 12:13:32;;;;;;;6.43;3.60;;;;;;;10.70;89.28;102572.66;4940364;29;20042;-94
2024/01/30 12:15:57;;;;;;;7.80;4.03;;;;;;;10.73;89.82;102572.66;4917633;29;20032;-94
2024/01/30 12:18:43;;;;;;;7.35;3.65;;;;;;;10.75;91.63;102585.69;4919124;29;20075;-94
2024/01/30 12:22:07;;;;;;;;;;;;;;;;;;;;;
2024/01/30 12:24:39;;;;;;;6.38;3.80;;;;;;;10.61;89.77;102583.03;4852943;29;20563;-96
2024/01/30 12:27:24;;;;;;;6.60;3.50;;;;;;;10.58;91.04;102589.13;4851826;29;20030;-96
2024/01/30 12:29:56;;;;;;;6.57;3.92;;;;;;;10.53;90.23;102587.38;4875295;29;20093;-94
2024/01/30 12:33:08;;;;;;;7.07;3.38;;;;;;;10.50;91.18;102598.66;4862509;29;20073;-94
2024/01/30 12:35:54;;;;;;;6.43;3.15;;;;;;;10.45;87.61;102596.00;4863807;29;20041;-94
2024/01/30 12:38:33;;;;;;;;;;;;;;;;;;;;;
2024/01/30 12:48:49;;;;;;;3.42;2.15;;;;;;;10.25;85.50;102613.25;4934618;29;20040;-91
2024/01/30 12:51:14;;;;;;;6.03;2.47;;;;;;;10.28;85.03;102615.84;4939128;29;20030;-91
2024/01/30 12:57:51;;;;;;;5.22;1.90;;;;;;;10.58;83.70;102614.28;4896519;29;20061;-95
2024/01/30 13:03:50;;;;;;;2.45;1.40;;;;;;;10.90;81.75;102627.34;4957285;29;20042;-95
2024/01/30 13:11:02;;;;;;;2.80;1.20;;;;;;;10.90;79.30;102621.28;4909216;29;20056;-96
2024/01/30 13:17:14;;;;;;;3.33;1.20;;;;;;;10.78;77.89;102633.41;4753359;30;20579;-93
2024/01/30 13:20:04;;;;;;;4.32;1.10;;;;;;;10.73;76.63;102637.75;4743110;30;20046;-95
2024/01/30 13:23:01;;;;;;;1.75;1.00;;;;;;;10.66;76.39;102642.94;4787309;30;20042;-95
2024/01/30 13:26:21;;;;;;;3.20;0.90;;;;;;;10.63;75.31;102646.38;4760279;30;20040;-93
2024/01/30 13:28:41;;;;;;;2.40;0.75;;;;;;;10.54;74.15;102654.16;4799902;29;20042;-95
2024/01/30 13:37:07;;;;;;;1.65;0.90;;;;;;;10.51;73.81;102659.34;4861424;29;20529;-90
2024/01/30 15:29:53;;;;;;;4.22;2.65;;;;;;;8.00;95.75;102780.59;4947585;29;20137;-91
2024/01/30 15:56:03;;;;;;;5.47;2.65;;;;;;;7.96;94.35;102822.84;4939388;29;20059;-92
2024/01/30 15:58:40;;;;;;;4.75;2.70;;;;;;;7.96;94.19;102827.16;5115305;23;20169;-94
2024/01/30 16:01:09;;;;;;;7.38;2.50;;;;;;;7.97;93.82;102840.16;4962225;28;20411;-92
2024/01/30 16:03:44;;;;;;;;;;;;;;;;;;;;;
2024/01/30 16:06:19;;;;;;;5.40;2.58;;;;;;;7.91;93.19;102850.41;4954125;29;20046;-91
2024/01/30 16:08:54;;;;;;;;;;;;;;;;;;;;;
2024/01/30 16:11:48;;;;;;;3.75;2.30;;;;;;;7.89;93.19;102859.88;4962564;29;20153;-94
2024/01/30 16:14:23;;;;;;;4.97;2.28;;;;;;;7.87;93.25;102865.03;4936468;29;20039;-93
2024/01/30 16:17:16;;;;;;;6.85;2.70;;;;;;;7.86;93.43;102862.41;4945073;29;20031;-95
2024/01/30 16:23:05;;;;;;;7.10;2.50;;;;;;;7.82;93.97;102877.03;4938975;29;20027;-93
2024/01/30 16:29:14;;;;;;;6.18;2.90;;;;;;;7.80;95.20;102883.88;4876344;29;20136;-94
2024/01/30 16:40:28;;;;;;;5.32;2.58;;;;;;;7.67;96.54;102900.94;5423057;23;20055;-94
2024/01/30 16:42:56;;;;;;;6.93;3.22;;;;;;;7.65;97.75;102901.72;4946937;29;20035;-94
2024/01/30 16:45:28;;;;;;;5.53;3.10;;;;;;;7.60;98.29;102901.66;4933214;29;20031;-94
2024/01/30 16:48:35;;;;;;;6.10;3.30;;;;;;;7.56;98.39;102905.00;4930045;29;20030;-94
2024/01/30 16:51:33;;;;;;;;;;;;;;;;;;;;;
2024/01/30 16:54:08;;;;;;;5.03;3.22;;;;;;;7.53;98.83;102920.50;4946850;29;20033;-93
2024/01/30 16:56:34;;;;;;;5.95;3.50;;;;;;;7.49;98.69;102913.53;4953767;29;20043;-94
2024/01/30 16:59:21;;;;;;;9.70;4.38;;;;;;;7.50;99.26;102915.28;4933282;29;20106;-95
2024/01/30 17:01:55;;;;;;;8.02;4.32;;;;;;;7.46;100.00;102923.81;4943955;29;20095;-94
2024/01/30 17:04:22;;;;;;;7.53;3.90;;;;;;;7.45;100.00;102933.28;4938506;29;20066;-91
2024/01/30 17:22:30;;;;;;;8.85;4.95;;;;;;;7.27;100.00;102955.34;5046451;23;20059;-93
2024/01/30 17:24:56;;;;;;;9.95;4.90;;;;;;;7.26;100.00;102955.31;4936063;29;20046;-93
2024/01/30 17:35:54;;;;;;;7.38;4.88;;;;;;;7.15;100.00;102965.44;5335028;23;20268;-93
2024/01/30 17:38:55;;;;;;;7.45;4.78;;;;;;;7.14;100.00;102969.75;4952074;29;20557;-94
2024/01/30 17:41:12;;;;;;;8.20;4.95;;;;;;;7.12;100.00;102976.59;4981910;23;20047;-92
2024/01/30 17:58:51;;;;;;;9.05;5.63;;;;;;;7.10;100.00;102992.91;4977709;28;20057;-91
2024/01/30 18:01:48;;;;;;;9.05;5.95;;;;;;;7.08;100.00;102998.06;4968260;28;20018;-94
2024/01/30 18:04:52;;;;;;;8.90;6.00;;;;;;;7.06;100.00;102998.88;4973292;28;20023;-96
2024/01/30 18:07:20;;;;;;;9.75;5.68;;;;;;;7.04;100.00;103008.31;4962578;28;20137;-93
2024/01/30 18:10:11;;;;;;;;;;;;;;;;;;;;;
2024/01/30 18:12:37;;;;;;;8.77;5.80;;;;;;;7.05;100.00;103021.28;5030213;23;20107;-93
2024/01/30 18:17:34;;;;;;;10.37;5.93;;;;;;;7.01;100.00;103024.63;4937795;29;20103;-96
2024/01/30 18:19:59;;;;;;;9.80;6.00;;;;;;;7.01;100.00;103024.63;4922432;29;20090;-90
2024/01/30 18:22:25;;;;;;;9.18;6.07;;;;;;;7.01;100.00;103032.38;4912485;29;20027;-93
2024/01/30 18:24:50;;;;;;;9.50;6.07;;;;;;;6.99;100.00;103021.16;4907969;29;20025;-93
2024/01/30 18:27:23;;;;;;;9.15;6.15;;;;;;;6.98;100.00;103034.94;4906625;29;20501;-94
2024/01/30 18:29:51;;;;;;;7.47;5.30;;;;;;;6.96;100.00;103037.47;4915128;29;20032;-95
2024/01/30 18:32:36;;;;;;;8.82;5.82;;;;;;;6.94;100.00;103027.91;4908627;29;20107;-94
2024/01/30 18:35:04;;;;;;;8.07;5.50;;;;;;;6.95;100.00;103037.44;4933056;29;20039;-91
2024/01/30 18:37:30;;;;;;;8.10;5.45;;;;;;;6.92;100.00;103037.34;4914128;29;20020;-90
2024/01/30 18:39:55;;;;;;;8.85;5.75;;;;;;;6.93;100.00;103042.56;4929023;29;20045;-90
2024/01/30 18:43:03;;;;;;;9.35;5.45;;;;;;;6.91;100.00;103033.91;4916014;29;20024;-94
2024/01/30 18:45:28;;;;;;;7.65;5.55;;;;;;;6.90;100.00;103041.59;4915835;29;20059;-93
2024/01/30 20:25:40;;;;;;;8.23;5.70;;;;;;;6.66;100.00;103133.28;4972941;28;20046;-96
2024/01/30 20:41:08;;;;;;;9.50;6.18;;;;;;;6.65;100.00;103165.16;5362623;23;20066;-92
2024/01/30 20:44:31;;;;;;;9.77;6.22;;;;;;;6.65;100.00;103178.09;4950680;28;20039;-96
2024/01/30 21:11:20;;;;;;;11.35;6.45;;;;;;;6.66;100.00;103192.78;4938884;29;20103;-94
2024/01/30 21:13:52;;;;;;;11.43;6.85;;;;;;;6.66;100.00;103182.44;4919017;29;20051;-94
2024/01/30 21:20:45;;;;;;;11.68;6.75;;;;;;;6.62;100.00;103196.97;5443531;23;20091;-95
2024/01/30 21:22:57;;;;;;;11.18;6.63;;;;;;;6.56;100.00;103191.63;4933993;29;20044;-93
2024/01/30 21:28:10;;;;;;;;;;;;;;;;;;;;;
2024/01/30 21:35:39;;;;;;;13.20;6.88;;;;;;;6.41;100.00;103212.72;4969331;28;20062;-90
2024/01/30 21:38:28;;;;;;;11.95;7.10;;;;;;;6.40;100.00;103215.28;4981926;28;20042;-94
2024/01/30 21:41:35;;;;;;;;;;;;;;;;;;;;;
2024/01/30 21:45:00;;;;;;;;;;;;;;;;;;;;;
2024/01/30 21:48:00;;;;;;;10.23;5.57;;;;;;;6.35;100.00;103216.00;4899562;29;20135;-95
2024/01/30 21:50:29;;;;;;;11.52;5.75;;;;;;;6.37;100.00;103216.03;4855403;29;20041;-93
2024/01/30 21:52:57;;;;;;;12.82;6.38;;;;;;;6.34;100.00;103218.53;4916396;29;20020;-96
2024/01/30 21:56:01;;;;;;;;;;;;;;;;;;;;;
2024/01/30 21:58:27;;;;;;;10.90;5.85;;;;;;;6.36;100.00;103229.81;5071121;23;20167;-93
2024/01/30 22:01:14;;;;;;;10.75;6.07;;;;;;;6.36;100.00;103237.56;4935993;28;20087;-95
2024/01/30 22:03:52;;;;;;;;;;;;;;;;;;;;;
2024/01/30 22:35:00;;;;;;;;;;;;;;;;;;;;;
2024/01/30 22:38:12;;;;;;;;;;;;;;;;;;;;;
2024/01/30 22:40:54;;;;;;;;;;;;;;;;;;;;;
2024/01/30 22:43:29;;;;;;;8.82;4.60;;;;;;;6.29;100.00;103266.66;4960953;28;20197;-95
2024/01/30 22:46:00;;;;;;;10.57;4.75;;;;;;;6.27;100.00;103270.91;4951474;28;20118;-94
2024/01/30 22:48:46;;;;;;;;;;;;;;;;;;;;;
2024/01/30 22:51:11;;;;;;;9.55;4.78;;;;;;;6.20;100.00;103262.94;4962823;28;20048;-95
2024/01/30 22:53:47;;;;;;;;;;;;;;;;;;;;;
2024/01/30 22:56:38;;;;;;;13.10;4.35;;;;;;;6.19;100.00;103268.06;4969408;28;20558;-96
2024/01/30 22:59:35;;;;;;;;;;;;;;;;;;;;;
2024/01/30 23:02:52;;;;;;;;;;;;;;;;;;;;;
2024/01/30 23:12:16;;;;;;;7.00;2.70;;;;;;;6.08;100.00;103283.22;4951641;23;20187;-95
2024/01/30 23:14:57;;;;;;;9.18;3.13;;;;;;;6.08;100.00;103285.81;4953907;28;20907;-96
2024/01/30 23:18:14;;;;;;;;;;;;;;;;;;;;;
2024/01/30 23:20:51;;;;;;;;;;;;;;;;;;;;;
2024/01/30 23:23:24;;;;;;;6.10;2.92;;;;;;;6.06;100.00;103287.47;4959155;28;20029;-94
2024/01/30 23:28:51;;;;;;;11.32;3.28;;;;;;;6.07;100.00;103291.81;4956712;28;20035;-95
2024/01/30 23:37:42;;;;;;;;;;;;;;;;;;;;;
2024/01/30 23:44:19;;;;;;;;;;;;;;;;;;;;;
2024/01/30 23:47:06;;;;;;;;;;;;;;;;;;;;;
2024/01/30 23:53:44;;;;;;;8.70;2.65;;;;;;;5.96;100.00;103303.47;5074807;23;20082;-93
2024/01/30 23:56:25;;;;;;;;;;;;;;;;;;;;;
2024/01/30 23:59:09;;;;;;;;;;;;;;;;;;;;;
